sensor_id;sensor_type;location;lat;lon;timestamp;P1;durP1;ratioP1;P2;durP2;ratioP2
7791;SDS011;3940;49.892;10.886;2022-07-01T00:00:47;9.03;;;4.10;;
7791;SDS011;3940;49.892;10.886;2022-07-01T00:03:31;5.63;;;3.70;;
7791;SDS011;3940;49.892;10.886;2022-07-01T00:06:18;4.00;;;3.70;;
7791;SDS011;3940;49.892;10.886;2022-07-01T00:09:02;6.10;;;4.20;;
7791;SDS011;3940;49.892;10.886;2022-07-01T00:11:48;5.50;;;3.93;;
7791;SDS011;3940;49.892;10.886;2022-07-01T00:14:33;4.90;;;4.50;;
7791;SDS011;3940;49.892;10.886;2022-07-01T00:17:17;8.03;;;4.67;;
7791;SDS011;3940;49.892;10.886;2022-07-01T00:20:03;8.77;;;3.80;;
7791;SDS011;3940;49.892;10.886;2022-07-01T00:22:48;4.47;;;3.60;;
7791;SDS011;3940;49.892;10.886;2022-07-01T00:25:32;5.20;;;4.07;;
7791;SDS011;3940;49.892;10.886;2022-07-01T00:28:17;9.90;;;4.27;;
7791;SDS011;3940;49.892;10.886;2022-07-01T00:31:01;4.17;;;3.87;;
7791;SDS011;3940;49.892;10.886;2022-07-01T00:33:46;3.40;;;3.10;;
7791;SDS011;3940;49.892;10.886;2022-07-01T00:36:31;4.20;;;3.80;;
7791;SDS011;3940;49.892;10.886;2022-07-01T00:39:16;6.47;;;4.30;;
7791;SDS011;3940;49.892;10.886;2022-07-01T00:42:00;5.20;;;3.90;;
7791;SDS011;3940;49.892;10.886;2022-07-01T00:44:45;6.20;;;3.90;;
7791;SDS011;3940;49.892;10.886;2022-07-01T00:47:29;6.00;;;4.00;;
7791;SDS011;3940;49.892;10.886;2022-07-01T00:50:14;7.27;;;3.70;;
7791;SDS011;3940;49.892;10.886;2022-07-01T00:52:59;4.00;;;3.53;;
7791;SDS011;3940;49.892;10.886;2022-07-01T00:55:43;5.93;;;4.00;;
7791;SDS011;3940;49.892;10.886;2022-07-01T00:58:28;6.43;;;4.03;;
7791;SDS011;3940;49.892;10.886;2022-07-01T01:01:13;6.07;;;4.03;;
7791;SDS011;3940;49.892;10.886;2022-07-01T01:03:58;5.40;;;4.50;;
7791;SDS011;3940;49.892;10.886;2022-07-01T01:06:42;4.20;;;3.70;;
7791;SDS011;3940;49.892;10.886;2022-07-01T01:09:27;8.33;;;3.87;;
7791;SDS011;3940;49.892;10.886;2022-07-01T01:12:14;9.20;;;4.57;;
7791;SDS011;3940;49.892;10.886;2022-07-01T01:14:58;6.63;;;3.70;;
7791;SDS011;3940;49.892;10.886;2022-07-01T01:17:43;3.67;;;3.37;;
7791;SDS011;3940;49.892;10.886;2022-07-01T01:20:31;8.93;;;4.00;;
7791;SDS011;3940;49.892;10.886;2022-07-01T01:23:16;5.13;;;4.27;;
7791;SDS011;3940;49.892;10.886;2022-07-01T01:26:01;4.00;;;3.40;;
7791;SDS011;3940;49.892;10.886;2022-07-01T01:28:46;3.97;;;3.60;;
7791;SDS011;3940;49.892;10.886;2022-07-01T01:31:32;4.97;;;3.50;;
7791;SDS011;3940;49.892;10.886;2022-07-01T01:34:17;4.03;;;3.73;;
7791;SDS011;3940;49.892;10.886;2022-07-01T01:37:02;4.20;;;3.80;;
7791;SDS011;3940;49.892;10.886;2022-07-01T01:39:49;4.80;;;3.93;;
7791;SDS011;3940;49.892;10.886;2022-07-01T01:42:33;4.13;;;3.73;;
7791;SDS011;3940;49.892;10.886;2022-07-01T01:45:19;5.10;;;4.00;;
7791;SDS011;3940;49.892;10.886;2022-07-01T01:48:03;5.47;;;3.57;;
7791;SDS011;3940;49.892;10.886;2022-07-01T01:50:48;3.93;;;3.50;;
7791;SDS011;3940;49.892;10.886;2022-07-01T01:53:34;3.73;;;3.43;;
7791;SDS011;3940;49.892;10.886;2022-07-01T01:56:18;5.07;;;4.03;;
7791;SDS011;3940;49.892;10.886;2022-07-01T01:59:03;3.83;;;3.53;;
7791;SDS011;3940;49.892;10.886;2022-07-01T02:01:48;4.00;;;3.70;;
7791;SDS011;3940;49.892;10.886;2022-07-01T02:04:32;3.93;;;3.60;;
7791;SDS011;3940;49.892;10.886;2022-07-01T02:07:17;5.73;;;4.40;;
7791;SDS011;3940;49.892;10.886;2022-07-01T02:10:02;11.10;;;4.00;;
7791;SDS011;3940;49.892;10.886;2022-07-01T02:12:46;5.43;;;3.77;;
7791;SDS011;3940;49.892;10.886;2022-07-01T02:15:31;11.30;;;4.23;;
7791;SDS011;3940;49.892;10.886;2022-07-01T02:18:15;3.87;;;3.50;;
7791;SDS011;3940;49.892;10.886;2022-07-01T02:20:59;3.90;;;3.50;;
7791;SDS011;3940;49.892;10.886;2022-07-01T02:23:44;4.77;;;3.40;;
7791;SDS011;3940;49.892;10.886;2022-07-01T02:26:28;6.17;;;4.37;;
7791;SDS011;3940;49.892;10.886;2022-07-01T02:29:13;8.97;;;3.87;;
7791;SDS011;3940;49.892;10.886;2022-07-01T02:31:58;4.00;;;3.60;;
7791;SDS011;3940;49.892;10.886;2022-07-01T02:34:42;4.43;;;4.03;;
7791;SDS011;3940;49.892;10.886;2022-07-01T02:37:27;4.40;;;4.00;;
7791;SDS011;3940;49.892;10.886;2022-07-01T02:40:11;5.93;;;4.03;;
7791;SDS011;3940;49.892;10.886;2022-07-01T02:42:57;5.73;;;4.50;;
7791;SDS011;3940;49.892;10.886;2022-07-01T02:45:41;5.03;;;3.80;;
7791;SDS011;3940;49.892;10.886;2022-07-01T02:48:25;7.07;;;4.17;;
7791;SDS011;3940;49.892;10.886;2022-07-01T02:51:09;4.73;;;4.03;;
7791;SDS011;3940;49.892;10.886;2022-07-01T02:53:54;4.30;;;4.00;;
7791;SDS011;3940;49.892;10.886;2022-07-01T02:56:39;4.60;;;3.90;;
7791;SDS011;3940;49.892;10.886;2022-07-01T02:59:24;5.07;;;3.93;;
7791;SDS011;3940;49.892;10.886;2022-07-01T03:02:08;4.23;;;3.93;;
7791;SDS011;3940;49.892;10.886;2022-07-01T03:04:52;5.10;;;4.50;;
7791;SDS011;3940;49.892;10.886;2022-07-01T03:07:39;4.00;;;3.70;;
7791;SDS011;3940;49.892;10.886;2022-07-01T03:10:23;9.63;;;4.10;;
7791;SDS011;3940;49.892;10.886;2022-07-01T03:13:07;4.40;;;4.10;;
7791;SDS011;3940;49.892;10.886;2022-07-01T03:15:52;4.10;;;3.70;;
7791;SDS011;3940;49.892;10.886;2022-07-01T03:18:36;4.53;;;3.83;;
7791;SDS011;3940;49.892;10.886;2022-07-01T03:21:20;3.67;;;3.37;;
7791;SDS011;3940;49.892;10.886;2022-07-01T03:24:05;4.00;;;3.70;;
7791;SDS011;3940;49.892;10.886;2022-07-01T03:26:49;4.00;;;3.57;;
7791;SDS011;3940;49.892;10.886;2022-07-01T03:29:36;4.10;;;3.80;;
7791;SDS011;3940;49.892;10.886;2022-07-01T03:32:21;6.33;;;3.60;;
7791;SDS011;3940;49.892;10.886;2022-07-01T03:35:05;4.47;;;3.80;;
7791;SDS011;3940;49.892;10.886;2022-07-01T03:38:09;8.43;;;4.10;;
7791;SDS011;3940;49.892;10.886;2022-07-01T03:40:54;4.23;;;3.60;;
7791;SDS011;3940;49.892;10.886;2022-07-01T03:43:38;3.80;;;3.50;;
7791;SDS011;3940;49.892;10.886;2022-07-01T03:46:23;6.73;;;4.00;;
7791;SDS011;3940;49.892;10.886;2022-07-01T03:49:08;4.03;;;3.73;;
7791;SDS011;3940;49.892;10.886;2022-07-01T03:51:53;4.70;;;4.00;;
7791;SDS011;3940;49.892;10.886;2022-07-01T03:54:38;4.20;;;3.90;;
7791;SDS011;3940;49.892;10.886;2022-07-01T03:57:23;3.73;;;3.33;;
7791;SDS011;3940;49.892;10.886;2022-07-01T04:00:08;4.60;;;4.10;;
7791;SDS011;3940;49.892;10.886;2022-07-01T04:02:53;4.00;;;3.60;;
7791;SDS011;3940;49.892;10.886;2022-07-01T04:05:37;3.60;;;3.30;;
7791;SDS011;3940;49.892;10.886;2022-07-01T04:08:23;4.00;;;3.70;;
7791;SDS011;3940;49.892;10.886;2022-07-01T04:11:08;5.77;;;4.23;;
7791;SDS011;3940;49.892;10.886;2022-07-01T04:13:54;3.87;;;3.57;;
7791;SDS011;3940;49.892;10.886;2022-07-01T04:16:40;5.50;;;3.00;;
7791;SDS011;3940;49.892;10.886;2022-07-01T04:19:25;5.43;;;3.70;;
7791;SDS011;3940;49.892;10.886;2022-07-01T04:22:11;8.57;;;3.30;;
7791;SDS011;3940;49.892;10.886;2022-07-01T04:25:15;3.53;;;3.23;;
7791;SDS011;3940;49.892;10.886;2022-07-01T04:28:00;3.77;;;3.47;;
7791;SDS011;3940;49.892;10.886;2022-07-01T04:30:45;4.07;;;3.13;;
7791;SDS011;3940;49.892;10.886;2022-07-01T04:33:30;6.43;;;3.33;;
7791;SDS011;3940;49.892;10.886;2022-07-01T04:36:14;5.10;;;2.77;;
7791;SDS011;3940;49.892;10.886;2022-07-01T04:38:59;3.27;;;2.97;;
7791;SDS011;3940;49.892;10.886;2022-07-01T04:41:44;3.73;;;3.30;;
7791;SDS011;3940;49.892;10.886;2022-07-01T04:44:39;6.50;;;2.50;;
7791;SDS011;3940;49.892;10.886;2022-07-01T04:47:23;2.70;;;2.33;;
7791;SDS011;3940;49.892;10.886;2022-07-01T04:50:08;4.70;;;3.00;;
7791;SDS011;3940;49.892;10.886;2022-07-01T04:52:53;3.27;;;2.97;;
7791;SDS011;3940;49.892;10.886;2022-07-01T04:55:38;9.33;;;3.80;;
7791;SDS011;3940;49.892;10.886;2022-07-01T04:58:23;3.20;;;2.90;;
7791;SDS011;3940;49.892;10.886;2022-07-01T05:01:08;2.60;;;2.40;;
7791;SDS011;3940;49.892;10.886;2022-07-01T05:03:53;4.37;;;3.00;;
7791;SDS011;3940;49.892;10.886;2022-07-01T05:06:39;3.10;;;2.50;;
7791;SDS011;3940;49.892;10.886;2022-07-01T05:09:24;2.60;;;2.40;;
7791;SDS011;3940;49.892;10.886;2022-07-01T05:12:08;3.50;;;2.87;;
7791;SDS011;3940;49.892;10.886;2022-07-01T05:14:53;3.30;;;2.50;;
7791;SDS011;3940;49.892;10.886;2022-07-01T05:17:38;3.20;;;2.70;;
7791;SDS011;3940;49.892;10.886;2022-07-01T05:20:39;3.17;;;2.87;;
7791;SDS011;3940;49.892;10.886;2022-07-01T05:23:34;2.90;;;2.70;;
7791;SDS011;3940;49.892;10.886;2022-07-01T05:26:19;2.23;;;2.13;;
7791;SDS011;3940;49.892;10.886;2022-07-01T05:29:03;3.00;;;2.80;;
7791;SDS011;3940;49.892;10.886;2022-07-01T05:31:48;3.60;;;3.07;;
7791;SDS011;3940;49.892;10.886;2022-07-01T05:34:34;2.40;;;2.20;;
7791;SDS011;3940;49.892;10.886;2022-07-01T05:37:21;3.43;;;2.53;;
7791;SDS011;3940;49.892;10.886;2022-07-01T05:40:06;2.47;;;2.27;;
7791;SDS011;3940;49.892;10.886;2022-07-01T05:42:51;3.47;;;2.27;;
7791;SDS011;3940;49.892;10.886;2022-07-01T05:45:36;2.50;;;2.30;;
7791;SDS011;3940;49.892;10.886;2022-07-01T05:48:21;2.03;;;1.93;;
7791;SDS011;3940;49.892;10.886;2022-07-01T05:51:06;2.60;;;2.40;;
7791;SDS011;3940;49.892;10.886;2022-07-01T05:53:50;1.97;;;1.80;;
7791;SDS011;3940;49.892;10.886;2022-07-01T05:56:34;1.90;;;1.80;;
7791;SDS011;3940;49.892;10.886;2022-07-01T05:59:19;2.00;;;1.90;;
7791;SDS011;3940;49.892;10.886;2022-07-01T06:02:03;2.93;;;2.20;;
7791;SDS011;3940;49.892;10.886;2022-07-01T06:04:47;2.30;;;1.97;;
7791;SDS011;3940;49.892;10.886;2022-07-01T06:07:31;2.37;;;2.17;;
7791;SDS011;3940;49.892;10.886;2022-07-01T06:10:15;2.03;;;1.93;;
7791;SDS011;3940;49.892;10.886;2022-07-01T06:13:00;2.37;;;2.17;;
7791;SDS011;3940;49.892;10.886;2022-07-01T06:15:45;4.43;;;2.00;;
7791;SDS011;3940;49.892;10.886;2022-07-01T06:18:29;1.80;;;1.70;;
7791;SDS011;3940;49.892;10.886;2022-07-01T06:21:15;2.10;;;1.90;;
7791;SDS011;3940;49.892;10.886;2022-07-01T06:24:00;3.77;;;2.07;;
7791;SDS011;3940;49.892;10.886;2022-07-01T06:26:44;2.60;;;2.40;;
7791;SDS011;3940;49.892;10.886;2022-07-01T06:29:30;2.20;;;2.10;;
7791;SDS011;3940;49.892;10.886;2022-07-01T06:32:15;3.27;;;2.43;;
7791;SDS011;3940;49.892;10.886;2022-07-01T06:34:59;4.97;;;2.90;;
7791;SDS011;3940;49.892;10.886;2022-07-01T06:37:44;2.50;;;2.30;;
7791;SDS011;3940;49.892;10.886;2022-07-01T06:40:28;2.40;;;2.30;;
7791;SDS011;3940;49.892;10.886;2022-07-01T06:43:13;2.30;;;2.10;;
7791;SDS011;3940;49.892;10.886;2022-07-01T06:45:57;2.60;;;2.27;;
7791;SDS011;3940;49.892;10.886;2022-07-01T06:48:41;4.90;;;2.20;;
7791;SDS011;3940;49.892;10.886;2022-07-01T06:51:26;2.53;;;2.33;;
7791;SDS011;3940;49.892;10.886;2022-07-01T06:54:10;2.77;;;2.57;;
7791;SDS011;3940;49.892;10.886;2022-07-01T06:56:55;7.10;;;3.27;;
7791;SDS011;3940;49.892;10.886;2022-07-01T06:59:39;2.50;;;2.20;;
7791;SDS011;3940;49.892;10.886;2022-07-01T07:02:23;2.40;;;2.20;;
7791;SDS011;3940;49.892;10.886;2022-07-01T07:05:08;3.40;;;2.20;;
7791;SDS011;3940;49.892;10.886;2022-07-01T07:07:52;2.30;;;2.10;;
7791;SDS011;3940;49.892;10.886;2022-07-01T07:10:36;2.03;;;1.93;;
7791;SDS011;3940;49.892;10.886;2022-07-01T07:13:21;2.67;;;1.87;;
7791;SDS011;3940;49.892;10.886;2022-07-01T07:16:06;2.53;;;2.43;;
7791;SDS011;3940;49.892;10.886;2022-07-01T07:18:50;1.87;;;1.77;;
7791;SDS011;3940;49.892;10.886;2022-07-01T07:21:35;1.67;;;1.57;;
7791;SDS011;3940;49.892;10.886;2022-07-01T07:24:20;2.37;;;2.17;;
7791;SDS011;3940;49.892;10.886;2022-07-01T07:27:04;2.90;;;2.40;;
7791;SDS011;3940;49.892;10.886;2022-07-01T07:29:49;2.00;;;1.90;;
7791;SDS011;3940;49.892;10.886;2022-07-01T07:32:34;2.43;;;2.23;;
7791;SDS011;3940;49.892;10.886;2022-07-01T07:35:19;2.50;;;2.30;;
7791;SDS011;3940;49.892;10.886;2022-07-01T07:38:04;3.23;;;2.03;;
7791;SDS011;3940;49.892;10.886;2022-07-01T07:40:50;2.00;;;1.90;;
7791;SDS011;3940;49.892;10.886;2022-07-01T07:43:35;2.33;;;2.13;;
7791;SDS011;3940;49.892;10.886;2022-07-01T07:46:19;2.40;;;2.20;;
7791;SDS011;3940;49.892;10.886;2022-07-01T07:49:04;5.53;;;2.10;;
7791;SDS011;3940;49.892;10.886;2022-07-01T07:51:49;3.10;;;1.97;;
7791;SDS011;3940;49.892;10.886;2022-07-01T07:54:34;2.47;;;2.27;;
7791;SDS011;3940;49.892;10.886;2022-07-01T07:57:19;2.27;;;2.07;;
7791;SDS011;3940;49.892;10.886;2022-07-01T08:00:04;2.17;;;2.00;;
7791;SDS011;3940;49.892;10.886;2022-07-01T08:02:50;1.93;;;1.83;;
7791;SDS011;3940;49.892;10.886;2022-07-01T08:05:35;2.10;;;2.00;;
7791;SDS011;3940;49.892;10.886;2022-07-01T08:08:19;2.00;;;1.90;;
7791;SDS011;3940;49.892;10.886;2022-07-01T08:11:04;2.00;;;1.80;;
7791;SDS011;3940;49.892;10.886;2022-07-01T08:13:49;1.70;;;1.60;;
7791;SDS011;3940;49.892;10.886;2022-07-01T08:16:34;2.30;;;2.10;;
7791;SDS011;3940;49.892;10.886;2022-07-01T08:19:18;2.60;;;2.30;;
7791;SDS011;3940;49.892;10.886;2022-07-01T08:22:03;2.90;;;2.70;;
7791;SDS011;3940;49.892;10.886;2022-07-01T08:24:48;3.47;;;2.57;;
7791;SDS011;3940;49.892;10.886;2022-07-01T08:27:32;2.80;;;2.47;;
7791;SDS011;3940;49.892;10.886;2022-07-01T08:30:17;3.63;;;2.70;;
7791;SDS011;3940;49.892;10.886;2022-07-01T08:33:01;2.77;;;2.57;;
7791;SDS011;3940;49.892;10.886;2022-07-01T08:35:46;3.70;;;3.00;;
7791;SDS011;3940;49.892;10.886;2022-07-01T08:38:32;3.70;;;3.40;;
7791;SDS011;3940;49.892;10.886;2022-07-01T08:41:17;3.70;;;3.03;;
7791;SDS011;3940;49.892;10.886;2022-07-01T08:44:03;3.63;;;3.27;;
7791;SDS011;3940;49.892;10.886;2022-07-01T08:46:48;3.93;;;3.63;;
7791;SDS011;3940;49.892;10.886;2022-07-01T08:49:32;2.77;;;2.57;;
7791;SDS011;3940;49.892;10.886;2022-07-01T08:52:18;3.30;;;3.00;;
7791;SDS011;3940;49.892;10.886;2022-07-01T08:55:03;2.77;;;2.57;;
7791;SDS011;3940;49.892;10.886;2022-07-01T08:57:48;3.50;;;3.20;;
7791;SDS011;3940;49.892;10.886;2022-07-01T09:00:32;3.37;;;3.07;;
7791;SDS011;3940;49.892;10.886;2022-07-01T09:03:20;3.97;;;3.57;;
7791;SDS011;3940;49.892;10.886;2022-07-01T09:06:10;6.47;;;3.67;;
7791;SDS011;3940;49.892;10.886;2022-07-01T09:09:09;3.10;;;2.83;;
7791;SDS011;3940;49.892;10.886;2022-07-01T09:11:59;3.03;;;2.83;;
7791;SDS011;3940;49.892;10.886;2022-07-01T09:14:43;6.53;;;3.53;;
7791;SDS011;3940;49.892;10.886;2022-07-01T09:17:27;4.07;;;3.77;;
7791;SDS011;3940;49.892;10.886;2022-07-01T09:20:29;3.93;;;3.40;;
7791;SDS011;3940;49.892;10.886;2022-07-01T09:23:16;4.50;;;3.73;;
7791;SDS011;3940;49.892;10.886;2022-07-01T09:26:01;3.83;;;3.53;;
7791;SDS011;3940;49.892;10.886;2022-07-01T09:28:52;3.60;;;3.30;;
7791;SDS011;3940;49.892;10.886;2022-07-01T09:31:42;4.63;;;4.23;;
7791;SDS011;3940;49.892;10.886;2022-07-01T09:34:33;4.70;;;4.20;;
7791;SDS011;3940;49.892;10.886;2022-07-01T09:37:19;7.10;;;3.90;;
7791;SDS011;3940;49.892;10.886;2022-07-01T09:40:05;10.77;;;4.50;;
7791;SDS011;3940;49.892;10.886;2022-07-01T09:42:50;3.70;;;3.40;;
7791;SDS011;3940;49.892;10.886;2022-07-01T09:45:34;4.63;;;3.70;;
7791;SDS011;3940;49.892;10.886;2022-07-01T09:48:19;5.20;;;3.77;;
7791;SDS011;3940;49.892;10.886;2022-07-01T09:51:06;3.90;;;3.50;;
7791;SDS011;3940;49.892;10.886;2022-07-01T09:53:52;6.50;;;3.50;;
7791;SDS011;3940;49.892;10.886;2022-07-01T09:56:36;4.00;;;3.67;;
7791;SDS011;3940;49.892;10.886;2022-07-01T09:59:21;3.60;;;3.30;;
7791;SDS011;3940;49.892;10.886;2022-07-01T10:02:06;4.80;;;3.57;;
7791;SDS011;3940;49.892;10.886;2022-07-01T10:04:53;4.70;;;4.20;;
7791;SDS011;3940;49.892;10.886;2022-07-01T10:14:19;3.57;;;3.27;;
7791;SDS011;3940;49.892;10.886;2022-07-01T10:17:05;3.40;;;3.10;;
7791;SDS011;3940;49.892;10.886;2022-07-01T10:19:53;6.37;;;2.70;;
7791;SDS011;3940;49.892;10.886;2022-07-01T10:22:40;2.83;;;2.53;;
7791;SDS011;3940;49.892;10.886;2022-07-01T10:25:30;4.00;;;3.70;;
7791;SDS011;3940;49.892;10.886;2022-07-01T10:28:29;5.60;;;4.00;;
7791;SDS011;3940;49.892;10.886;2022-07-01T10:31:34;5.77;;;3.80;;
7791;SDS011;3940;49.892;10.886;2022-07-01T10:34:22;3.57;;;3.20;;
7791;SDS011;3940;49.892;10.886;2022-07-01T10:37:09;4.87;;;2.77;;
7791;SDS011;3940;49.892;10.886;2022-07-01T10:39:57;3.40;;;3.10;;
7791;SDS011;3940;49.892;10.886;2022-07-01T10:45:42;3.47;;;3.17;;
7791;SDS011;3940;49.892;10.886;2022-07-01T10:48:30;5.67;;;3.07;;
7791;SDS011;3940;49.892;10.886;2022-07-01T10:51:23;5.80;;;2.53;;
7791;SDS011;3940;49.892;10.886;2022-07-01T10:54:47;2.87;;;2.67;;
7791;SDS011;3940;49.892;10.886;2022-07-01T10:57:38;2.63;;;2.43;;
7791;SDS011;3940;49.892;10.886;2022-07-01T11:00:26;2.60;;;2.40;;
7791;SDS011;3940;49.892;10.886;2022-07-01T11:03:16;4.40;;;3.00;;
7791;SDS011;3940;49.892;10.886;2022-07-01T11:06:03;2.90;;;2.60;;
7791;SDS011;3940;49.892;10.886;2022-07-01T11:08:48;3.30;;;3.00;;
7791;SDS011;3940;49.892;10.886;2022-07-01T11:11:34;2.80;;;2.60;;
7791;SDS011;3940;49.892;10.886;2022-07-01T11:14:18;4.53;;;3.20;;
7791;SDS011;3940;49.892;10.886;2022-07-01T11:17:03;5.93;;;2.93;;
7791;SDS011;3940;49.892;10.886;2022-07-01T11:19:50;2.87;;;2.67;;
7791;SDS011;3940;49.892;10.886;2022-07-01T11:22:36;4.67;;;2.40;;
7791;SDS011;3940;49.892;10.886;2022-07-01T11:25:21;3.40;;;2.77;;
7791;SDS011;3940;49.892;10.886;2022-07-01T11:28:06;3.00;;;2.70;;
7791;SDS011;3940;49.892;10.886;2022-07-01T11:30:59;3.07;;;2.77;;
7791;SDS011;3940;49.892;10.886;2022-07-01T11:33:48;3.73;;;2.60;;
7791;SDS011;3940;49.892;10.886;2022-07-01T11:36:34;2.83;;;2.57;;
7791;SDS011;3940;49.892;10.886;2022-07-01T11:39:34;5.97;;;2.40;;
7791;SDS011;3940;49.892;10.886;2022-07-01T11:42:19;4.00;;;3.10;;
7791;SDS011;3940;49.892;10.886;2022-07-01T11:45:05;2.80;;;2.60;;
7791;SDS011;3940;49.892;10.886;2022-07-01T11:47:50;3.40;;;3.10;;
7791;SDS011;3940;49.892;10.886;2022-07-01T11:50:34;2.87;;;2.67;;
7791;SDS011;3940;49.892;10.886;2022-07-01T11:53:19;3.20;;;2.87;;
7791;SDS011;3940;49.892;10.886;2022-07-01T11:56:03;2.03;;;1.83;;
7791;SDS011;3940;49.892;10.886;2022-07-01T11:58:50;8.13;;;3.30;;
7791;SDS011;3940;49.892;10.886;2022-07-01T12:01:37;2.50;;;2.30;;
7791;SDS011;3940;49.892;10.886;2022-07-01T12:04:22;3.83;;;2.50;;
7791;SDS011;3940;49.892;10.886;2022-07-01T12:07:09;2.97;;;2.70;;
7791;SDS011;3940;49.892;10.886;2022-07-01T12:09:57;2.03;;;1.93;;
7791;SDS011;3940;49.892;10.886;2022-07-01T12:12:42;2.03;;;1.90;;
7791;SDS011;3940;49.892;10.886;2022-07-01T12:15:29;2.40;;;2.20;;
7791;SDS011;3940;49.892;10.886;2022-07-01T12:18:14;2.40;;;2.20;;
7791;SDS011;3940;49.892;10.886;2022-07-01T12:20:59;2.20;;;2.10;;
7791;SDS011;3940;49.892;10.886;2022-07-01T12:24:01;2.23;;;2.03;;
7791;SDS011;3940;49.892;10.886;2022-07-01T12:27:01;2.43;;;2.23;;
7791;SDS011;3940;49.892;10.886;2022-07-01T12:29:51;2.27;;;2.07;;
7791;SDS011;3940;49.892;10.886;2022-07-01T12:32:37;3.17;;;2.30;;
7791;SDS011;3940;49.892;10.886;2022-07-01T12:35:23;1.90;;;1.80;;
7791;SDS011;3940;49.892;10.886;2022-07-01T12:38:24;2.43;;;2.23;;
7791;SDS011;3940;49.892;10.886;2022-07-01T12:47:19;1.90;;;1.80;;
7791;SDS011;3940;49.892;10.886;2022-07-01T12:50:22;2.57;;;2.33;;
7791;SDS011;3940;49.892;10.886;2022-07-01T12:53:09;2.00;;;1.90;;
7791;SDS011;3940;49.892;10.886;2022-07-01T12:55:56;1.67;;;1.57;;
7791;SDS011;3940;49.892;10.886;2022-07-01T12:58:41;2.33;;;2.10;;
7791;SDS011;3940;49.892;10.886;2022-07-01T13:01:25;2.20;;;1.93;;
7791;SDS011;3940;49.892;10.886;2022-07-01T13:04:10;2.47;;;2.20;;
7791;SDS011;3940;49.892;10.886;2022-07-01T13:06:55;1.90;;;1.80;;
7791;SDS011;3940;49.892;10.886;2022-07-01T13:09:39;1.67;;;1.57;;
7791;SDS011;3940;49.892;10.886;2022-07-01T13:12:25;2.07;;;1.87;;
7791;SDS011;3940;49.892;10.886;2022-07-01T13:15:10;2.83;;;1.67;;
7791;SDS011;3940;49.892;10.886;2022-07-01T13:17:55;1.80;;;1.70;;
7791;SDS011;3940;49.892;10.886;2022-07-01T13:20:40;1.60;;;1.50;;
7791;SDS011;3940;49.892;10.886;2022-07-01T13:23:26;1.77;;;1.67;;
7791;SDS011;3940;49.892;10.886;2022-07-01T13:26:10;2.80;;;1.67;;
7791;SDS011;3940;49.892;10.886;2022-07-01T13:28:55;1.70;;;1.50;;
7791;SDS011;3940;49.892;10.886;2022-07-01T13:31:39;1.70;;;1.60;;
7791;SDS011;3940;49.892;10.886;2022-07-01T13:34:25;2.80;;;1.70;;
7791;SDS011;3940;49.892;10.886;2022-07-01T13:37:10;2.30;;;2.10;;
7791;SDS011;3940;49.892;10.886;2022-07-01T13:39:54;2.00;;;1.90;;
7791;SDS011;3940;49.892;10.886;2022-07-01T13:42:39;4.30;;;2.30;;
7791;SDS011;3940;49.892;10.886;2022-07-01T13:45:24;1.73;;;1.63;;
7791;SDS011;3940;49.892;10.886;2022-07-01T13:48:08;2.30;;;2.03;;
7791;SDS011;3940;49.892;10.886;2022-07-01T13:50:53;2.77;;;1.50;;
7791;SDS011;3940;49.892;10.886;2022-07-01T13:53:38;1.97;;;1.50;;
7791;SDS011;3940;49.892;10.886;2022-07-01T13:56:24;1.73;;;1.57;;
7791;SDS011;3940;49.892;10.886;2022-07-01T13:59:09;2.30;;;2.10;;
7791;SDS011;3940;49.892;10.886;2022-07-01T14:01:53;1.57;;;1.47;;
7791;SDS011;3940;49.892;10.886;2022-07-01T14:04:38;1.63;;;1.53;;
7791;SDS011;3940;49.892;10.886;2022-07-01T14:07:23;2.57;;;1.60;;
7791;SDS011;3940;49.892;10.886;2022-07-01T14:10:09;1.80;;;1.70;;
7791;SDS011;3940;49.892;10.886;2022-07-01T14:12:54;2.33;;;1.80;;
7791;SDS011;3940;49.892;10.886;2022-07-01T14:15:38;1.90;;;1.80;;
7791;SDS011;3940;49.892;10.886;2022-07-01T14:18:23;2.63;;;2.40;;
7791;SDS011;3940;49.892;10.886;2022-07-01T14:21:08;2.37;;;2.17;;
7791;SDS011;3940;49.892;10.886;2022-07-01T14:23:52;1.73;;;1.63;;
7791;SDS011;3940;49.892;10.886;2022-07-01T14:26:37;3.07;;;2.63;;
7791;SDS011;3940;49.892;10.886;2022-07-01T14:29:21;1.60;;;1.50;;
7791;SDS011;3940;49.892;10.886;2022-07-01T14:32:06;1.53;;;1.43;;
7791;SDS011;3940;49.892;10.886;2022-07-01T14:34:52;1.70;;;1.60;;
7791;SDS011;3940;49.892;10.886;2022-07-01T14:37:36;1.30;;;1.17;;
7791;SDS011;3940;49.892;10.886;2022-07-01T14:40:23;2.60;;;1.67;;
7791;SDS011;3940;49.892;10.886;2022-07-01T14:43:10;1.30;;;1.20;;
7791;SDS011;3940;49.892;10.886;2022-07-01T14:45:55;1.73;;;1.63;;
7791;SDS011;3940;49.892;10.886;2022-07-01T14:48:39;1.50;;;1.40;;
7791;SDS011;3940;49.892;10.886;2022-07-01T14:51:24;2.00;;;1.90;;
7791;SDS011;3940;49.892;10.886;2022-07-01T14:54:09;5.73;;;2.10;;
7791;SDS011;3940;49.892;10.886;2022-07-01T14:56:55;2.30;;;2.10;;
7791;SDS011;3940;49.892;10.886;2022-07-01T14:59:39;1.70;;;1.60;;
7791;SDS011;3940;49.892;10.886;2022-07-01T15:02:24;2.50;;;2.03;;
7791;SDS011;3940;49.892;10.886;2022-07-01T15:05:11;2.80;;;2.60;;
7791;SDS011;3940;49.892;10.886;2022-07-01T15:07:55;3.20;;;2.90;;
7791;SDS011;3940;49.892;10.886;2022-07-01T15:10:40;4.43;;;1.93;;
7791;SDS011;3940;49.892;10.886;2022-07-01T15:13:24;1.90;;;1.80;;
7791;SDS011;3940;49.892;10.886;2022-07-01T15:16:09;2.40;;;2.13;;
7791;SDS011;3940;49.892;10.886;2022-07-01T15:18:53;2.00;;;1.87;;
7791;SDS011;3940;49.892;10.886;2022-07-01T15:21:38;1.90;;;1.80;;
7791;SDS011;3940;49.892;10.886;2022-07-01T15:24:45;4.33;;;2.40;;
7791;SDS011;3940;49.892;10.886;2022-07-01T15:27:29;2.67;;;2.47;;
7791;SDS011;3940;49.892;10.886;2022-07-01T15:30:14;2.47;;;2.27;;
7791;SDS011;3940;49.892;10.886;2022-07-01T15:33:00;1.80;;;1.70;;
7791;SDS011;3940;49.892;10.886;2022-07-01T15:35:44;3.73;;;2.30;;
7791;SDS011;3940;49.892;10.886;2022-07-01T15:38:49;2.90;;;2.00;;
7791;SDS011;3940;49.892;10.886;2022-07-01T15:41:35;2.77;;;1.77;;
7791;SDS011;3940;49.892;10.886;2022-07-01T15:44:21;1.80;;;1.70;;
7791;SDS011;3940;49.892;10.886;2022-07-01T15:47:05;2.03;;;1.83;;
7791;SDS011;3940;49.892;10.886;2022-07-01T15:50:12;2.10;;;1.90;;
7791;SDS011;3940;49.892;10.886;2022-07-01T15:52:57;3.30;;;1.93;;
7791;SDS011;3940;49.892;10.886;2022-07-01T15:55:41;1.80;;;1.70;;
7791;SDS011;3940;49.892;10.886;2022-07-01T15:58:27;5.57;;;1.57;;
7791;SDS011;3940;49.892;10.886;2022-07-01T16:01:13;2.97;;;1.80;;
7791;SDS011;3940;49.892;10.886;2022-07-01T16:03:58;2.57;;;2.37;;
7791;SDS011;3940;49.892;10.886;2022-07-01T16:06:43;2.20;;;2.00;;
7791;SDS011;3940;49.892;10.886;2022-07-01T16:09:28;2.70;;;2.03;;
7791;SDS011;3940;49.892;10.886;2022-07-01T16:12:16;2.30;;;2.10;;
7791;SDS011;3940;49.892;10.886;2022-07-01T16:15:01;1.67;;;1.57;;
7791;SDS011;3940;49.892;10.886;2022-07-01T16:17:48;1.60;;;1.50;;
7791;SDS011;3940;49.892;10.886;2022-07-01T16:20:38;2.37;;;2.17;;
7791;SDS011;3940;49.892;10.886;2022-07-01T16:23:25;1.77;;;1.67;;
7791;SDS011;3940;49.892;10.886;2022-07-01T16:26:12;1.97;;;1.77;;
7791;SDS011;3940;49.892;10.886;2022-07-01T16:29:00;3.47;;;2.13;;
7791;SDS011;3940;49.892;10.886;2022-07-01T16:31:46;3.17;;;2.87;;
7791;SDS011;3940;49.892;10.886;2022-07-01T16:34:30;3.10;;;2.17;;
7791;SDS011;3940;49.892;10.886;2022-07-01T16:37:15;2.13;;;1.93;;
7791;SDS011;3940;49.892;10.886;2022-07-01T16:40:02;1.90;;;1.80;;
7791;SDS011;3940;49.892;10.886;2022-07-01T16:42:50;2.47;;;2.27;;
7791;SDS011;3940;49.892;10.886;2022-07-01T16:45:38;1.93;;;1.83;;
7791;SDS011;3940;49.892;10.886;2022-07-01T16:48:27;3.20;;;2.20;;
7791;SDS011;3940;49.892;10.886;2022-07-01T16:51:16;1.90;;;1.57;;
7791;SDS011;3940;49.892;10.886;2022-07-01T16:54:01;7.67;;;2.10;;
7791;SDS011;3940;49.892;10.886;2022-07-01T16:56:46;8.77;;;2.50;;
7791;SDS011;3940;49.892;10.886;2022-07-01T16:59:37;2.30;;;2.10;;
7791;SDS011;3940;49.892;10.886;2022-07-01T17:02:21;2.47;;;2.27;;
7791;SDS011;3940;49.892;10.886;2022-07-01T17:05:08;1.90;;;1.80;;
7791;SDS011;3940;49.892;10.886;2022-07-01T17:07:54;4.80;;;2.00;;
7791;SDS011;3940;49.892;10.886;2022-07-01T17:10:41;2.47;;;2.27;;